createdAt,value
2022-10-25T00:00:11.724Z,956.42
2022-10-25T00:02:48.451Z,941.80
2022-10-25T00:05:24.150Z,931.83
2022-10-25T00:07:51.957Z,1002.88
2022-10-25T00:10:25.826Z,965.13
2022-10-25T00:12:53.827Z,1006.63
2022-10-25T00:15:26.522Z,965.08
2022-10-25T00:18:03.759Z,967.65
2022-10-25T00:20:39.816Z,945.63
2022-10-25T00:23:14.027Z,1031.10
2022-10-25T00:25:41.745Z,992.63
2022-10-25T00:28:18.465Z,1065.15
2022-10-25T00:30:48.891Z,990.97
2022-10-25T00:33:16.453Z,1028.38
2022-10-25T00:35:44.113Z,962.70
2022-10-25T00:38:23.350Z,1053.22
2022-10-25T00:40:53.730Z,1046.43
2022-10-25T00:43:44.123Z,1096.15
2022-10-25T00:46:29.748Z,1029.60
2022-10-25T00:49:09.083Z,1091.38
2022-10-25T00:51:46.954Z,1052.80
2022-10-25T00:54:24.442Z,1021.28
2022-10-25T00:56:53.273Z,1051.60
2022-10-25T00:59:24.627Z,995.78
2022-10-25T01:01:54.528Z,1071.13
2022-10-25T01:04:27.304Z,1010.30
2022-10-25T01:06:54.330Z,1046.90
2022-10-25T01:09:26.876Z,1035.75
2022-10-25T01:11:53.982Z,1019.85
2022-10-25T01:14:21.597Z,980.58
2022-10-25T01:17:16.528Z,1015.17
2022-10-25T01:19:52.126Z,1008.15
2022-10-25T01:22:36.747Z,955.17
2022-10-25T01:25:40.531Z,942.42
2022-10-25T01:28:20.458Z,958.38
2022-10-25T01:31:52.000Z,925.22
2022-10-25T01:34:35.310Z,957.85
2022-10-25T01:37:14.928Z,1024.18
2022-10-25T01:39:54.076Z,983.15
2022-10-25T01:42:41.884Z,984.63
2022-10-25T01:45:48.111Z,1025.53
2022-10-25T01:48:23.076Z,990.33
2022-10-25T01:50:50.496Z,982.17
2022-10-25T01:53:17.769Z,1060.40
2022-10-25T01:56:00.917Z,1073.10
2022-10-25T01:58:53.512Z,1040.53
2022-10-25T02:01:57.926Z,989.78
2022-10-25T02:05:07.673Z,931.28
2022-10-25T02:07:42.008Z,956.33
2022-10-25T02:10:35.292Z,1032.63
2022-10-25T02:13:16.146Z,987.10
2022-10-25T02:16:06.975Z,1019.75
2022-10-25T02:18:39.001Z,988.65
2022-10-25T02:21:07.066Z,998.42
2022-10-25T02:23:36.911Z,944.05
2022-10-25T02:26:07.814Z,943.70
2022-10-25T02:28:39.340Z,962.08
2022-10-25T02:31:15.445Z,971.63
2022-10-25T02:33:45.739Z,1045.20
2022-10-25T02:36:23.610Z,1055.95
2022-10-25T02:38:53.173Z,1079.80
2022-10-25T02:41:21.887Z,990.22
2022-10-25T02:43:49.581Z,1066.95
2022-10-25T02:46:21.516Z,1021.53
2022-10-25T02:48:49.448Z,1085.05
2022-10-25T02:51:17.469Z,1090.15
2022-10-25T02:53:44.650Z,1094.82
2022-10-25T02:56:19.575Z,1141.93
2022-10-25T02:58:49.096Z,1096.15
2022-10-25T03:01:18.409Z,1200.93
2022-10-25T03:03:45.930Z,1130.88
2022-10-25T03:06:13.623Z,1068.43
2022-10-25T03:08:42.187Z,1117.85
2022-10-25T03:11:10.900Z,1200.25
2022-10-25T03:13:38.252Z,1116.93
2022-10-25T03:16:06.045Z,1149.13
2022-10-25T03:18:33.146Z,1204.10
2022-10-25T03:21:02.434Z,1218.63
2022-10-25T03:23:29.951Z,1276.95
2022-10-25T03:25:59.421Z,1227.30
2022-10-25T03:28:28.437Z,1265.82
2022-10-25T03:30:56.717Z,1276.63
2022-10-25T03:33:24.611Z,1280.95
2022-10-25T03:35:53.408Z,1188.38
2022-10-25T03:38:21.223Z,1190.95
2022-10-25T03:40:48.218Z,1158.38
2022-10-25T03:43:15.293Z,1100.75
2022-10-25T03:45:42.287Z,1131.63
2022-10-25T03:48:09.541Z,1076.03
2022-10-25T03:50:36.517Z,1123.43
2022-10-25T03:53:05.045Z,1174.15
2022-10-25T03:55:33.551Z,1181.18
2022-10-25T03:58:00.726Z,1294.18
2022-10-25T04:00:28.417Z,1200.93
2022-10-25T04:03:01.714Z,1230.70
2022-10-25T04:05:31.091Z,1246.95
2022-10-25T04:07:58.713Z,1284.22
2022-10-25T04:10:26.479Z,1380.55
2022-10-25T04:12:54.947Z,1345.50
2022-10-25T04:15:23.985Z,1345.70
2022-10-25T04:17:52.799Z,1284.00
2022-10-25T04:20:20.481Z,1256.70
2022-10-25T04:22:55.070Z,1182.30
2022-10-25T04:25:23.477Z,1179.55
2022-10-25T04:27:50.484Z,1229.03
2022-10-25T04:30:17.662Z,1228.38
2022-10-25T04:32:44.745Z,1243.70
2022-10-25T04:35:12.784Z,1263.43
2022-10-25T04:37:39.874Z,1229.20
2022-10-25T04:40:07.904Z,1282.60
2022-10-25T04:42:35.283Z,1263.50
2022-10-25T04:45:02.701Z,1219.18
2022-10-25T04:47:33.694Z,1279.45
2022-10-25T04:50:00.805Z,1263.20
2022-10-25T04:52:31.865Z,1260.00
2022-10-25T04:54:59.349Z,1260.20
2022-10-25T04:57:26.843Z,1299.20
2022-10-25T04:59:54.109Z,1251.65
2022-10-25T05:02:21.287Z,1169.60
2022-10-25T05:04:48.377Z,1122.05
2022-10-25T05:07:20.230Z,1070.68
2022-10-25T05:09:47.548Z,1033.55
2022-10-25T05:12:15.510Z,1081.43
2022-10-25T05:14:42.840Z,1020.55
2022-10-25T05:17:09.853Z,1098.50
2022-10-25T05:19:37.041Z,989.50
2022-10-25T05:22:04.012Z,972.15
2022-10-25T05:24:31.250Z,1013.13
2022-10-25T05:26:58.157Z,993.85
2022-10-25T05:29:25.097Z,610.30
2022-10-25T05:31:52.169Z,1074.30
2022-10-25T05:34:19.068Z,882.45
2022-10-25T05:36:46.112Z,174.88
2022-10-25T05:39:13.219Z,1203.80
2022-10-25T05:41:40.226Z,1269.28
2022-10-25T05:44:07.309Z,1364.50
2022-10-25T05:46:34.921Z,1387.18
2022-10-25T05:49:02.242Z,1425.35
2022-10-25T05:51:36.251Z,1296.47
2022-10-25T05:54:14.327Z,414.52
2022-10-25T05:56:42.374Z,394.58
2022-10-25T05:59:12.908Z,413.80
2022-10-25T06:01:44.967Z,410.77
2022-10-25T06:04:13.750Z,429.35
2022-10-25T06:06:42.274Z,452.25
2022-10-25T06:09:10.123Z,404.45
2022-10-25T06:11:37.913Z,365.70
2022-10-25T06:14:05.914Z,429.73
2022-10-25T06:16:33.614Z,408.58
2022-10-25T06:19:00.816Z,409.35
2022-10-25T06:21:29.611Z,395.50
2022-10-25T06:23:56.701Z,380.98
2022-10-25T06:26:28.674Z,461.45
2022-10-25T06:29:01.735Z,419.52
2022-10-25T06:31:30.490Z,411.13
2022-10-25T06:34:00.642Z,396.48
2022-10-25T06:36:28.304Z,404.92
2022-10-25T06:38:55.435Z,394.60
2022-10-25T06:41:25.437Z,374.95
2022-10-25T06:43:52.436Z,418.48
2022-10-25T06:46:33.119Z,396.88
2022-10-25T06:49:02.161Z,378.25
2022-10-25T06:51:29.646Z,376.50
2022-10-25T06:54:02.025Z,382.20
2022-10-25T06:56:29.727Z,411.08
2022-10-25T06:58:56.904Z,419.17
2022-10-25T07:01:25.954Z,376.75
2022-10-25T07:03:55.093Z,355.48
2022-10-25T07:06:35.821Z,383.25
2022-10-25T07:09:05.354Z,395.98
2022-10-25T07:11:33.339Z,357.33
2022-10-25T07:14:02.267Z,376.00
2022-10-25T07:16:29.542Z,374.13
2022-10-25T07:19:04.324Z,370.10
2022-10-25T07:21:32.950Z,382.42
2022-10-25T07:24:00.556Z,377.05
2022-10-25T07:26:31.298Z,404.83
2022-10-25T07:29:00.455Z,363.75
2022-10-25T07:31:34.491Z,360.08
2022-10-25T07:34:04.153Z,387.08
2022-10-25T07:36:31.843Z,372.40
2022-10-25T07:38:59.088Z,366.85
2022-10-25T07:41:26.477Z,370.25
2022-10-25T07:43:53.640Z,352.33
2022-10-25T07:46:20.788Z,353.27
2022-10-25T07:48:47.874Z,372.10
2022-10-25T07:51:16.773Z,358.52
2022-10-25T07:53:44.164Z,341.05
2022-10-25T07:56:20.614Z,347.00
2022-10-25T07:58:52.243Z,363.60
2022-10-25T08:01:26.249Z,334.50
2022-10-25T08:03:55.031Z,337.00
2022-10-25T08:06:24.923Z,355.77
2022-10-25T08:08:52.819Z,330.65
2022-10-25T08:11:20.283Z,335.42
2022-10-25T08:13:50.109Z,307.08
2022-10-25T08:16:17.337Z,288.17
2022-10-25T08:18:44.601Z,332.50
2022-10-25T08:21:11.682Z,326.67
2022-10-25T08:23:38.905Z,340.88
2022-10-25T08:26:06.224Z,325.20
2022-10-25T08:28:33.488Z,310.45
2022-10-25T08:31:01.611Z,315.90
2022-10-25T08:33:29.450Z,293.92
2022-10-25T08:35:59.940Z,306.10
2022-10-25T08:38:26.924Z,293.58
2022-10-25T08:41:14.386Z,301.65
2022-10-25T08:44:14.827Z,307.17
2022-10-25T08:47:09.907Z,308.20
2022-10-25T08:49:57.772Z,332.20
2022-10-25T08:52:40.395Z,277.52
2022-10-25T08:55:25.963Z,287.40
2022-10-25T08:57:54.226Z,258.23
2022-10-25T09:00:23.919Z,247.45
2022-10-25T09:02:57.344Z,288.25
2022-10-25T09:05:49.652Z,281.92
2022-10-25T09:08:34.760Z,213.82
2022-10-25T09:11:48.329Z,213.32
2022-10-25T09:14:43.161Z,231.40
2022-10-25T09:17:29.787Z,179.70
2022-10-25T09:20:02.697Z,192.70
2022-10-25T09:22:54.833Z,195.73
2022-10-25T09:25:49.169Z,158.38
2022-10-25T09:28:34.534Z,244.00
2022-10-25T09:31:03.265Z,167.98
2022-10-25T09:33:33.034Z,190.30
2022-10-25T09:36:00.312Z,407.77
2022-10-25T09:38:47.300Z,167.68
2022-10-25T09:41:28.296Z,192.25
2022-10-25T09:44:09.835Z,184.52
2022-10-25T09:46:54.980Z,156.82
2022-10-25T09:49:43.904Z,174.70
2022-10-25T09:52:26.902Z,168.70
2022-10-25T09:55:05.924Z,154.40
2022-10-25T09:57:33.016Z,160.10
2022-10-25T10:00:00.177Z,154.95
2022-10-25T10:02:28.079Z,143.98
2022-10-25T10:04:55.116Z,149.02
2022-10-25T10:07:34.263Z,99.22
2022-10-25T10:10:06.173Z,104.78
2022-10-25T10:15:38.767Z,133.88
2022-10-25T10:18:30.986Z,107.30
2022-10-25T10:21:10.379Z,143.93
2022-10-25T10:24:05.527Z,104.20
2022-10-25T10:26:51.623Z,124.95
2022-10-25T10:29:23.821Z,127.80
2022-10-25T10:31:54.405Z,145.77
2022-10-25T10:34:32.648Z,143.68
2022-10-25T10:37:30.060Z,151.48
2022-10-25T10:40:17.172Z,156.75
2022-10-25T10:42:44.344Z,142.02
2022-10-25T10:45:12.240Z,130.85
2022-10-25T10:47:51.555Z,119.05
2022-10-25T10:50:24.553Z,85.72
2022-10-25T10:53:09.280Z,111.15
2022-10-25T10:55:46.375Z,94.50
2022-10-25T10:58:29.259Z,142.05
2022-10-25T11:01:12.738Z,120.70
2022-10-25T11:03:53.442Z,125.13
2022-10-25T11:06:32.268Z,126.35
2022-10-25T11:09:17.753Z,127.57
2022-10-25T11:12:05.508Z,173.33
2022-10-25T11:14:32.569Z,125.72
2022-10-25T11:17:22.298Z,148.82
2022-10-25T11:20:28.128Z,150.57
2022-10-25T11:23:08.677Z,165.25
2022-10-25T11:25:46.320Z,121.68
2022-10-25T11:28:50.004Z,142.35
2022-10-25T11:31:40.469Z,117.82
2022-10-25T11:34:36.520Z,105.80
2022-10-25T11:37:32.925Z,134.70
2022-10-25T11:40:22.648Z,128.50
2022-10-25T11:42:56.852Z,114.75
2022-10-25T11:45:35.338Z,90.68
2022-10-25T11:48:44.234Z,110.55
2022-10-25T11:51:23.395Z,102.82
2022-10-25T11:54:23.819Z,100.28
2022-10-25T11:57:14.957Z,97.15
2022-10-25T12:00:16.768Z,104.32
2022-10-25T12:03:36.787Z,97.07
2022-10-25T12:06:16.055Z,101.25
2022-10-25T12:09:29.688Z,94.20
2022-10-25T12:12:14.868Z,120.43
2022-10-25T12:14:48.065Z,109.90
2022-10-25T12:17:28.885Z,107.55
2022-10-25T12:20:03.723Z,63.15
2022-10-25T12:22:39.801Z,55.50
2022-10-25T12:25:29.728Z,46.50
2022-10-25T12:28:16.882Z,45.35
2022-10-25T12:30:44.711Z,51.15
2022-10-25T12:33:41.043Z,44.75
2022-10-25T12:36:26.100Z,44.35
2022-10-25T12:38:53.424Z,34.58
2022-10-25T12:41:32.921Z,59.78
2022-10-25T12:44:21.715Z,57.05
2022-10-25T12:47:12.062Z,46.85
2022-10-25T12:50:24.021Z,38.17
2022-10-25T12:53:20.365Z,75.38
2022-10-25T12:56:27.439Z,90.55
2022-10-25T12:59:50.314Z,87.43
2022-10-25T13:02:45.703Z,107.80
2022-10-25T13:06:15.510Z,117.05
2022-10-25T13:08:43.505Z,68.90
2022-10-25T13:11:11.434Z,91.10
2022-10-25T13:13:51.384Z,96.38
2022-10-25T13:16:31.650Z,95.85
2022-10-25T13:19:56.956Z,114.60
2022-10-25T13:22:42.784Z,79.22
2022-10-25T13:25:12.819Z,108.10
2022-10-25T13:28:15.907Z,113.55
2022-10-25T13:30:45.894Z,116.57
2022-10-25T13:33:23.959Z,95.07
2022-10-25T13:35:51.176Z,105.47
2022-10-25T13:38:29.687Z,111.45
2022-10-25T13:41:10.136Z,121.72
2022-10-25T13:44:04.149Z,89.80
2022-10-25T13:46:38.943Z,92.75
2022-10-25T13:49:35.059Z,104.63
2022-10-25T13:52:33.455Z,94.45
2022-10-25T13:55:06.353Z,98.80
2022-10-25T13:57:49.324Z,120.47
2022-10-25T14:00:27.603Z,130.60
2022-10-25T14:03:09.760Z,102.00
2022-10-25T14:05:55.161Z,117.25
2022-10-25T14:08:38.933Z,88.33
2022-10-25T14:11:32.216Z,69.82
2022-10-25T14:14:11.258Z,89.10
2022-10-25T14:17:14.061Z,88.43
2022-10-25T14:19:54.852Z,81.95
2022-10-25T14:22:43.695Z,100.28
2022-10-25T14:25:30.162Z,104.68
2022-10-25T14:28:17.466Z,101.25
2022-10-25T14:30:54.639Z,96.28
2022-10-25T14:33:45.717Z,87.35
2022-10-25T14:36:34.202Z,101.82
2022-10-25T14:39:17.660Z,91.25
2022-10-25T14:41:53.338Z,94.78
2022-10-25T14:44:28.607Z,92.13
2022-10-25T14:46:58.071Z,164.48
2022-10-25T14:49:26.545Z,70.80
2022-10-25T14:52:00.387Z,86.88
2022-10-25T14:54:34.064Z,75.03
2022-10-25T14:57:05.977Z,94.65
2022-10-25T14:59:50.829Z,98.15
2022-10-25T15:02:23.424Z,101.22
2022-10-25T15:04:54.371Z,77.85
2022-10-25T15:07:31.256Z,89.72
2022-10-25T15:10:01.338Z,95.05
2022-10-25T15:12:33.937Z,100.70
2022-10-25T15:15:43.984Z,135.52
2022-10-25T15:18:37.460Z,134.50
2022-10-25T15:21:10.991Z,134.20
2022-10-25T15:23:41.311Z,138.63
2022-10-25T15:26:28.138Z,127.85
2022-10-25T15:29:01.354Z,134.38
2022-10-25T15:31:31.573Z,132.98
2022-10-25T15:34:01.660Z,131.60
2022-10-25T15:36:31.935Z,150.20
2022-10-25T15:39:09.297Z,141.68
2022-10-25T15:41:39.843Z,152.02
2022-10-25T15:44:06.846Z,480.75
2022-10-25T15:46:35.379Z,168.32
2022-10-25T15:49:09.041Z,160.65
2022-10-25T15:51:42.731Z,159.30
2022-10-25T15:54:19.640Z,158.80
2022-10-25T15:56:47.536Z,160.23
2022-10-25T16:01:49.445Z,330.38
2022-10-25T16:04:18.488Z,396.73
2022-10-25T16:06:45.927Z,382.70
2022-10-25T16:09:13.159Z,457.20
2022-10-25T16:11:44.952Z,472.63
2022-10-25T16:14:23.982Z,542.92
2022-10-25T16:16:51.191Z,518.30
2022-10-25T16:19:21.473Z,622.92
2022-10-25T16:21:48.643Z,632.13
2022-10-25T16:24:15.651Z,714.78
2022-10-25T16:26:46.431Z,721.67
2022-10-25T16:29:31.794Z,723.10
2022-10-25T16:31:59.134Z,749.35
2022-10-25T16:34:26.152Z,791.88
2022-10-25T16:36:53.858Z,731.80
2022-10-25T16:39:20.873Z,768.90
2022-10-25T16:41:48.689Z,734.30
2022-10-25T16:44:19.095Z,728.45
2022-10-25T16:46:46.777Z,765.08
2022-10-25T16:49:14.086Z,767.42
2022-10-25T16:51:41.987Z,782.50
2022-10-25T16:54:11.337Z,796.00
2022-10-25T16:56:39.497Z,785.72
2022-10-25T16:59:06.654Z,819.92
2022-10-25T17:01:37.999Z,863.70
2022-10-25T17:04:07.263Z,843.08
2022-10-25T17:06:42.503Z,826.13
2022-10-25T17:09:10.904Z,824.22
2022-10-25T17:11:38.110Z,821.75
2022-10-25T17:14:05.869Z,802.08
2022-10-25T17:16:33.260Z,838.60
2022-10-25T17:19:00.520Z,800.28
2022-10-25T17:21:28.286Z,827.75
2022-10-25T17:23:56.228Z,816.53
2022-10-25T17:26:23.281Z,822.28
2022-10-25T17:28:50.276Z,827.42
2022-10-25T17:31:17.548Z,834.60
2022-10-25T17:33:44.493Z,858.35
2022-10-25T17:36:16.137Z,868.42
2022-10-25T17:38:43.328Z,841.53
2022-10-25T17:41:11.375Z,821.08
2022-10-25T17:43:40.155Z,836.60
2022-10-25T17:46:18.499Z,864.65
2022-10-25T17:48:46.370Z,862.47
2022-10-25T17:51:15.303Z,903.85
2022-10-25T17:53:42.450Z,874.25
2022-10-25T17:56:12.952Z,888.00
2022-10-25T17:58:45.307Z,888.28
2022-10-25T18:01:16.742Z,885.08
2022-10-25T18:03:43.880Z,885.72
2022-10-25T18:06:15.391Z,888.08
2022-10-25T18:08:42.656Z,885.63
2022-10-25T18:11:11.036Z,837.65
2022-10-25T18:13:40.538Z,859.17
2022-10-25T18:16:11.822Z,850.63
2022-10-25T18:18:39.325Z,855.35
2022-10-25T18:21:09.877Z,897.40
2022-10-25T18:23:37.928Z,927.38
2022-10-25T18:26:06.878Z,959.33
2022-10-25T18:28:35.813Z,1032.95
2022-10-25T18:31:06.524Z,1043.70
2022-10-25T18:33:36.277Z,1048.85
2022-10-25T18:36:07.668Z,956.75
2022-10-25T18:38:34.941Z,1011.63
2022-10-25T18:41:07.592Z,1012.00
2022-10-25T18:43:35.225Z,940.92
2022-10-25T18:46:02.378Z,945.40
2022-10-25T18:48:29.759Z,1017.10
2022-10-25T18:50:56.847Z,984.53
2022-10-25T18:53:24.022Z,974.80
2022-10-25T18:55:51.263Z,967.80
2022-10-25T18:58:18.431Z,971.70
2022-10-25T19:00:46.586Z,948.70
2022-10-25T19:03:16.079Z,920.85
2022-10-25T19:05:43.650Z,1032.32
2022-10-25T19:08:12.135Z,1073.00
2022-10-25T19:10:40.972Z,1099.65
2022-10-25T19:13:12.302Z,1132.50
2022-10-25T19:15:39.510Z,1181.65
2022-10-25T19:18:06.691Z,1099.55
2022-10-25T19:20:33.863Z,1087.38
2022-10-25T19:23:00.880Z,1106.80
2022-10-25T19:25:29.603Z,1150.78
2022-10-25T19:27:56.919Z,1063.20
2022-10-25T19:30:24.333Z,1113.97
2022-10-25T19:32:51.617Z,1035.72
2022-10-25T19:35:20.801Z,1168.03
2022-10-25T19:37:48.264Z,1091.32
2022-10-25T19:40:15.519Z,1183.20
2022-10-25T19:42:42.492Z,1114.05
2022-10-25T19:45:09.766Z,1150.25
2022-10-25T19:47:37.089Z,1156.65
2022-10-25T19:50:06.477Z,1137.15
2022-10-25T19:52:38.323Z,1182.45
2022-10-25T19:55:06.975Z,1130.13
2022-10-25T19:57:34.882Z,1223.15
2022-10-25T20:00:02.415Z,1054.60
2022-10-25T20:02:34.435Z,1323.00
2022-10-25T20:05:01.703Z,1243.47
2022-10-25T20:07:28.757Z,1341.45
2022-10-25T20:09:55.891Z,1231.65
2022-10-25T20:12:22.942Z,1224.90
2022-10-25T20:14:50.092Z,1186.60
2022-10-25T20:17:17.234Z,1234.00
2022-10-25T20:19:44.168Z,1170.22
2022-10-25T20:22:11.272Z,1282.63
2022-10-25T20:24:38.247Z,1173.68
2022-10-25T20:27:06.637Z,1218.25
2022-10-25T20:29:33.725Z,1197.00
2022-10-25T20:32:00.744Z,1196.75
2022-10-25T20:34:27.860Z,1237.82
2022-10-25T20:36:54.881Z,1250.38
2022-10-25T20:39:21.937Z,1256.38
2022-10-25T20:41:48.900Z,1221.03
2022-10-25T20:44:15.898Z,1145.57
2022-10-25T20:46:43.171Z,1185.75
2022-10-25T20:49:10.164Z,1213.10
2022-10-25T20:51:37.919Z,1294.30
2022-10-25T20:54:09.460Z,1116.57
2022-10-25T20:56:37.352Z,1154.68
2022-10-25T20:59:04.999Z,1144.70
2022-10-25T21:01:32.383Z,1182.22
2022-10-25T21:03:59.688Z,1362.07
2022-10-25T21:06:26.705Z,1286.55
2022-10-25T21:08:53.733Z,1278.80
2022-10-25T21:11:21.280Z,1120.68
2022-10-25T21:13:48.319Z,1497.10
2022-10-25T21:16:16.147Z,1433.43
2022-10-25T21:18:44.022Z,1339.85
2022-10-25T21:21:18.054Z,1278.25
2022-10-25T21:23:47.020Z,1136.50
2022-10-25T21:26:14.158Z,960.30
2022-10-25T21:28:41.841Z,449.50
2022-10-25T21:31:15.161Z,1126.75
2022-10-25T21:33:49.808Z,1062.25
2022-10-25T21:36:19.492Z,1063.65
2022-10-25T21:38:46.710Z,1141.95
2022-10-25T21:41:17.655Z,1154.90
2022-10-25T21:43:47.773Z,1045.35
2022-10-25T21:46:16.775Z,993.63
2022-10-25T21:48:45.714Z,1105.95
2022-10-25T21:51:12.737Z,1006.97
2022-10-25T21:53:39.978Z,1033.60
2022-10-25T21:56:19.820Z,1148.57
2022-10-25T21:58:49.942Z,1139.93
2022-10-25T22:01:22.178Z,1118.05
2022-10-25T22:03:49.380Z,1129.60
2022-10-25T22:06:20.485Z,1073.50
2022-10-25T22:08:48.208Z,1071.93
2022-10-25T22:11:21.437Z,1187.05
2022-10-25T22:13:48.902Z,1086.60
2022-10-25T22:16:20.238Z,1184.93
2022-10-25T22:19:00.262Z,1196.45
2022-10-25T22:21:31.517Z,1242.50
2022-10-25T22:23:58.936Z,1142.60
2022-10-25T22:26:29.114Z,1199.28
2022-10-25T22:28:58.709Z,1251.53
2022-10-25T22:31:28.293Z,1302.80
2022-10-25T22:34:01.406Z,1319.10
2022-10-25T22:36:32.307Z,1258.80
2022-10-25T22:38:59.559Z,1203.40
2022-10-25T22:41:28.624Z,1212.53
2022-10-25T22:43:56.352Z,1164.45
2022-10-25T22:46:27.715Z,1164.28
2022-10-25T22:48:57.057Z,1165.80
2022-10-25T22:51:26.598Z,1293.82
2022-10-25T22:53:54.084Z,1281.65
2022-10-25T22:56:27.905Z,1341.82
2022-10-25T22:58:59.693Z,1426.03
2022-10-25T23:01:30.424Z,1257.28
2022-10-25T23:03:59.284Z,1419.10
2022-10-25T23:06:33.455Z,1728.10
2022-10-25T23:09:03.348Z,1531.18
2022-10-25T23:11:33.922Z,1447.75
2022-10-25T23:14:05.225Z,1355.78
2022-10-25T23:16:34.423Z,1362.78
2022-10-25T23:19:02.384Z,1187.60
2022-10-25T23:21:30.903Z,1403.82
2022-10-25T23:24:00.081Z,1351.90
2022-10-25T23:26:33.918Z,1468.78
2022-10-25T23:29:01.586Z,1495.72
2022-10-25T23:31:30.271Z,1364.10
2022-10-25T23:33:59.844Z,1491.25
2022-10-25T23:36:30.508Z,1366.90
2022-10-25T23:38:58.570Z,1358.60
2022-10-25T23:41:25.647Z,1488.00
2022-10-25T23:43:52.792Z,1603.45
2022-10-25T23:46:19.845Z,1527.95
2022-10-25T23:48:47.069Z,1394.68
2022-10-25T23:51:17.694Z,1417.63
2022-10-25T23:53:45.565Z,1427.07
2022-10-25T23:56:14.001Z,1590.93
2022-10-25T23:58:41.612Z,1435.78
